createdAt,value
2023-02-19T00:01:47.225Z,5.88
2023-02-19T00:04:32.641Z,5.88
2023-02-19T00:07:18.035Z,6.75
2023-02-19T00:10:04.005Z,6.47
2023-02-19T00:12:49.116Z,6.05
2023-02-19T00:15:34.482Z,6.10
2023-02-19T00:18:19.773Z,6.55
2023-02-19T00:21:05.545Z,6.00
2023-02-19T00:23:52.923Z,6.75
2023-02-19T00:26:39.954Z,6.35
2023-02-19T00:29:25.211Z,6.30
2023-02-19T00:32:10.779Z,6.75
2023-02-19T00:34:56.280Z,6.35
2023-02-19T00:37:41.661Z,6.65
2023-02-19T00:40:27.322Z,7.43
2023-02-19T00:43:12.473Z,7.57
2023-02-19T00:45:57.914Z,7.40
2023-02-19T00:48:43.236Z,6.97
2023-02-19T00:51:32.283Z,7.10
2023-02-19T00:54:18.628Z,6.95
2023-02-19T00:57:03.992Z,7.25
2023-02-19T00:59:49.243Z,6.72
2023-02-19T01:02:34.878Z,6.63
2023-02-19T01:05:20.084Z,7.10
2023-02-19T01:08:05.490Z,7.47
2023-02-19T01:10:51.177Z,6.88
2023-02-19T01:13:36.887Z,7.40
2023-02-19T01:16:27.373Z,7.30
2023-02-19T01:19:12.750Z,7.60
2023-02-19T01:21:58.116Z,6.85
2023-02-19T01:24:43.452Z,7.53
2023-02-19T01:27:28.722Z,7.38
2023-02-19T01:30:14.449Z,6.50
2023-02-19T01:32:59.422Z,6.93
2023-02-19T01:35:44.713Z,7.72
2023-02-19T01:38:30.041Z,6.78
2023-02-19T01:41:19.592Z,6.93
2023-02-19T01:44:27.786Z,7.05
2023-02-19T01:47:16.809Z,7.47
2023-02-19T01:50:01.908Z,6.95
2023-02-19T01:52:47.889Z,5.82
2023-02-19T01:55:34.661Z,8.48
2023-02-19T01:58:20.076Z,7.53
2023-02-19T02:01:08.526Z,7.50
2023-02-19T02:03:54.268Z,6.75
2023-02-19T02:06:52.045Z,7.60
2023-02-19T02:09:55.941Z,6.78
2023-02-19T02:12:41.391Z,7.90
2023-02-19T02:15:36.379Z,7.72
2023-02-19T02:18:40.290Z,7.05
2023-02-19T02:21:58.934Z,7.47
2023-02-19T02:24:57.287Z,7.60
2023-02-19T02:28:06.855Z,7.47
2023-02-19T02:30:58.872Z,7.25
2023-02-19T02:33:54.744Z,7.47
2023-02-19T02:36:43.957Z,6.63
2023-02-19T02:39:32.179Z,6.35
2023-02-19T02:42:29.495Z,7.47
2023-02-19T02:45:37.709Z,7.18
2023-02-19T02:48:49.442Z,6.35
2023-02-19T02:51:38.900Z,6.78
2023-02-19T02:54:48.380Z,6.55
2023-02-19T02:57:33.781Z,6.82
2023-02-19T03:00:19.230Z,6.90
2023-02-19T03:03:05.390Z,6.32
2023-02-19T03:05:56.102Z,6.15
2023-02-19T03:08:54.488Z,7.10
2023-02-19T03:12:02.351Z,7.05
2023-02-19T03:15:12.246Z,7.38
2023-02-19T03:18:20.859Z,7.40
2023-02-19T03:21:08.729Z,7.53
2023-02-19T03:24:15.748Z,8.27
2023-02-19T03:27:04.004Z,7.93
2023-02-19T03:29:51.632Z,7.75
2023-02-19T03:32:43.991Z,8.48
2023-02-19T03:35:33.525Z,8.75
2023-02-19T03:38:36.783Z,7.60
2023-02-19T03:41:36.419Z,7.93
2023-02-19T03:44:46.505Z,9.02
2023-02-19T03:47:50.951Z,8.45
2023-02-19T03:50:56.969Z,9.43
2023-02-19T03:53:53.229Z,8.52
2023-02-19T03:56:49.241Z,7.68
2023-02-19T04:00:18.676Z,8.30
2023-02-19T04:03:15.918Z,8.43
2023-02-19T04:06:10.747Z,8.23
2023-02-19T04:09:00.145Z,7.55
2023-02-19T04:11:45.748Z,10.88
2023-02-19T04:14:51.958Z,7.40
2023-02-19T04:17:47.396Z,7.13
2023-02-19T04:20:39.134Z,8.27
2023-02-19T04:23:27.745Z,7.95
2023-02-19T04:26:14.952Z,7.35
2023-02-19T04:29:00.263Z,6.93
2023-02-19T04:31:45.511Z,7.00
2023-02-19T04:34:30.879Z,7.55
2023-02-19T04:37:16.223Z,7.53
2023-02-19T04:40:01.725Z,7.82
2023-02-19T04:42:47.002Z,8.02
2023-02-19T04:45:32.301Z,6.88
2023-02-19T04:48:17.713Z,7.72
2023-02-19T04:51:10.346Z,6.55
2023-02-19T04:53:56.379Z,6.75
2023-02-19T04:56:41.879Z,6.03
2023-02-19T04:59:27.107Z,6.47
2023-02-19T05:02:12.534Z,6.32
2023-02-19T05:04:58.064Z,5.68
2023-02-19T05:07:43.322Z,4.85
2023-02-19T05:10:28.549Z,5.03
2023-02-19T05:13:13.778Z,4.53
2023-02-19T05:16:09.718Z,5.18
2023-02-19T05:18:54.773Z,4.80
2023-02-19T05:21:42.987Z,4.90
2023-02-19T05:24:28.317Z,4.78
2023-02-19T05:27:13.378Z,4.57
2023-02-19T05:29:59.127Z,5.28
2023-02-19T05:32:44.330Z,4.22
2023-02-19T05:35:29.724Z,4.43
2023-02-19T05:38:16.027Z,4.18
2023-02-19T05:41:28.723Z,3.97
2023-02-19T05:44:13.699Z,4.18
2023-02-19T05:46:59.047Z,3.28
2023-02-19T05:49:44.493Z,3.72
2023-02-19T05:52:29.860Z,3.50
2023-02-19T05:55:15.430Z,3.30
2023-02-19T05:58:01.200Z,4.20
2023-02-19T06:00:46.541Z,3.45
2023-02-19T06:03:31.927Z,3.33
2023-02-19T06:06:18.732Z,3.72
2023-02-19T06:09:05.348Z,3.20
2023-02-19T06:11:50.602Z,3.03
2023-02-19T06:14:35.941Z,3.25
2023-02-19T06:17:21.265Z,2.85
2023-02-19T06:20:07.038Z,2.75
2023-02-19T06:22:52.516Z,2.55
2023-02-19T06:25:37.816Z,2.90
2023-02-19T06:28:23.016Z,2.40
2023-02-19T06:31:09.858Z,2.88
2023-02-19T06:33:55.366Z,2.60
2023-02-19T06:36:40.784Z,2.80
2023-02-19T06:39:26.780Z,2.70
2023-02-19T06:42:12.187Z,2.50
2023-02-19T06:44:57.481Z,2.17
2023-02-19T06:47:42.865Z,2.50
2023-02-19T06:50:28.303Z,2.72
2023-02-19T06:53:13.677Z,2.40
2023-02-19T06:56:01.456Z,2.88
2023-02-19T06:58:46.938Z,2.70
2023-02-19T07:01:34.394Z,2.72
2023-02-19T07:04:19.993Z,2.72
2023-02-19T07:07:05.456Z,2.50
2023-02-19T07:09:50.645Z,2.42
2023-02-19T07:12:36.016Z,2.65
2023-02-19T07:15:21.378Z,2.25
2023-02-19T07:18:10.292Z,2.10
2023-02-19T07:20:55.766Z,2.13
2023-02-19T07:23:42.189Z,2.05
2023-02-19T07:26:27.639Z,2.28
2023-02-19T07:29:13.022Z,1.88
2023-02-19T07:31:58.426Z,1.88
2023-02-19T07:34:43.726Z,1.85
2023-02-19T07:37:29.080Z,1.90
2023-02-19T07:40:14.518Z,1.95
2023-02-19T07:43:00.593Z,2.08
2023-02-19T07:45:46.183Z,1.90
2023-02-19T07:48:31.818Z,1.60
2023-02-19T07:51:19.192Z,1.65
2023-02-19T07:54:04.495Z,1.92
2023-02-19T07:56:50.023Z,1.50
2023-02-19T07:59:35.576Z,1.55
2023-02-19T08:02:39.857Z,1.35
2023-02-19T08:05:25.759Z,1.67
2023-02-19T08:08:13.682Z,1.30
2023-02-19T08:11:22.559Z,1.30
2023-02-19T08:14:07.877Z,1.20
2023-02-19T08:16:54.077Z,1.45
2023-02-19T08:19:39.622Z,1.58
2023-02-19T08:22:25.104Z,1.60
2023-02-19T08:25:10.415Z,1.70
2023-02-19T08:27:55.850Z,1.48
2023-02-19T08:30:45.219Z,1.80
2023-02-19T08:33:31.009Z,1.35
2023-02-19T08:36:16.393Z,1.73
2023-02-19T08:39:01.815Z,1.48
2023-02-19T08:41:47.916Z,1.58
2023-02-19T08:44:33.255Z,1.30
2023-02-19T08:47:18.443Z,1.35
2023-02-19T08:50:05.248Z,1.80
2023-02-19T08:52:50.726Z,1.75
2023-02-19T08:55:38.695Z,1.55
2023-02-19T08:58:26.213Z,1.67
2023-02-19T09:01:15.398Z,1.50
2023-02-19T09:04:01.227Z,1.77
2023-02-19T09:06:46.493Z,1.52
2023-02-19T09:09:31.871Z,1.83
2023-02-19T09:12:17.227Z,1.70
2023-02-19T09:15:02.738Z,1.75
2023-02-19T09:17:54.457Z,1.83
2023-02-19T09:20:39.696Z,2.08
2023-02-19T09:23:25.118Z,2.15
2023-02-19T09:26:11.421Z,1.95
2023-02-19T09:28:56.526Z,1.70
2023-02-19T09:31:41.949Z,1.95
2023-02-19T09:34:28.798Z,2.20
2023-02-19T09:37:13.867Z,1.70
2023-02-19T09:39:59.307Z,1.88
2023-02-19T09:42:44.869Z,1.70
2023-02-19T09:45:30.346Z,1.90
2023-02-19T09:48:15.801Z,1.70
2023-02-19T09:51:02.600Z,1.58
2023-02-19T09:53:50.398Z,2.58
2023-02-19T09:56:35.497Z,1.90
2023-02-19T09:59:36.916Z,1.58
2023-02-19T10:02:24.297Z,2.25
2023-02-19T10:05:14.894Z,1.63
2023-02-19T10:08:00.553Z,1.83
2023-02-19T10:10:45.895Z,2.00
2023-02-19T10:14:09.398Z,2.50
2023-02-19T10:17:00.726Z,1.35
2023-02-19T10:19:46.136Z,1.17
2023-02-19T10:22:33.876Z,1.50
2023-02-19T10:25:19.010Z,0.90
2023-02-19T10:28:06.837Z,1.10
2023-02-19T10:30:56.109Z,1.20
2023-02-19T10:33:58.743Z,1.00
2023-02-19T10:36:46.107Z,1.00
2023-02-19T10:39:46.854Z,1.10
2023-02-19T10:42:32.166Z,1.30
2023-02-19T10:45:21.833Z,1.48
2023-02-19T10:48:20.974Z,1.73
2023-02-19T10:51:10.766Z,2.30
2023-02-19T10:54:07.536Z,1.65
2023-02-19T10:56:54.078Z,1.30
2023-02-19T10:59:49.902Z,1.20
2023-02-19T11:02:35.454Z,1.17
2023-02-19T11:05:21.352Z,1.20
2023-02-19T11:08:20.408Z,1.45
2023-02-19T11:11:06.400Z,1.10
2023-02-19T11:13:52.013Z,1.30
2023-02-19T11:16:51.862Z,1.45
2023-02-19T11:19:43.179Z,1.30
2023-02-19T11:22:33.103Z,1.95
2023-02-19T11:25:21.433Z,1.75
2023-02-19T11:28:20.587Z,1.75
2023-02-19T11:31:34.153Z,1.45
2023-02-19T11:34:21.191Z,1.60
2023-02-19T11:37:23.538Z,1.25
2023-02-19T11:40:12.275Z,1.77
2023-02-19T11:43:06.595Z,1.40
2023-02-19T11:46:01.318Z,1.38
2023-02-19T11:49:12.831Z,1.58
2023-02-19T11:52:10.971Z,1.58
2023-02-19T11:55:11.143Z,1.02
2023-02-19T11:58:17.633Z,1.40
2023-02-19T12:01:29.885Z,1.00
2023-02-19T12:04:52.692Z,1.00
2023-02-19T12:07:56.550Z,2.05
2023-02-19T12:11:03.537Z,1.00
2023-02-19T12:14:42.617Z,1.40
2023-02-19T12:17:46.682Z,1.35
2023-02-19T12:20:43.575Z,1.67
2023-02-19T12:23:54.918Z,1.25
2023-02-19T12:27:04.082Z,0.93
2023-02-19T12:30:17.378Z,1.52
2023-02-19T12:33:21.671Z,1.40
2023-02-19T12:36:44.926Z,1.50
2023-02-19T12:42:39.493Z,1.40
2023-02-19T12:45:31.707Z,1.40
2023-02-19T12:48:48.575Z,1.30
2023-02-19T12:51:42.493Z,1.42
2023-02-19T12:54:34.183Z,3.95
2023-02-19T12:57:31.600Z,6.10
2023-02-19T13:00:35.488Z,1.70
2023-02-19T13:03:40.197Z,1.13
2023-02-19T13:07:23.751Z,1.25
2023-02-19T13:10:31.989Z,1.27
2023-02-19T13:13:28.959Z,1.90
2023-02-19T13:16:20.711Z,1.00
2023-02-19T13:19:06.281Z,0.90
2023-02-19T13:22:21.772Z,0.70
2023-02-19T13:25:09.447Z,0.70
2023-02-19T13:28:19.152Z,0.70
2023-02-19T13:31:45.296Z,0.85
2023-02-19T13:34:47.683Z,0.82
2023-02-19T13:37:35.092Z,0.80
2023-02-19T13:40:35.737Z,0.70
2023-02-19T13:43:26.519Z,0.95
2023-02-19T13:46:15.607Z,0.50
2023-02-19T13:49:22.681Z,0.80
2023-02-19T13:52:29.642Z,0.75
2023-02-19T13:55:43.098Z,0.75
2023-02-19T13:58:34.659Z,0.50
2023-02-19T14:01:40.183Z,1.02
2023-02-19T14:05:10.302Z,1.08
2023-02-19T14:07:56.044Z,1.00
2023-02-19T14:10:57.555Z,1.00
2023-02-19T14:13:52.114Z,1.15
2023-02-19T14:16:37.913Z,1.17
2023-02-19T14:19:41.501Z,1.48
2023-02-19T14:22:45.436Z,1.50
2023-02-19T14:25:42.748Z,2.05
2023-02-19T14:28:30.075Z,1.25
2023-02-19T14:31:26.922Z,1.42
2023-02-19T14:34:22.796Z,1.45
2023-02-19T14:37:18.121Z,1.30
2023-02-19T14:40:05.052Z,2.00
2023-02-19T14:42:53.214Z,1.92
2023-02-19T14:45:43.184Z,1.60
2023-02-19T14:48:39.480Z,1.45
2023-02-19T14:51:36.170Z,1.25
2023-02-19T14:54:35.851Z,1.63
2023-02-19T14:57:28.489Z,1.95
2023-02-19T15:00:22.327Z,2.20
2023-02-19T15:03:23.847Z,1.85
2023-02-19T15:06:13.889Z,2.60
2023-02-19T15:09:05.761Z,2.50
2023-02-19T15:11:51.357Z,2.85
2023-02-19T15:14:36.918Z,2.10
2023-02-19T15:17:34.035Z,2.40
2023-02-19T15:20:28.454Z,4.63
2023-02-19T15:23:22.047Z,5.32
2023-02-19T15:26:22.754Z,4.88
2023-02-19T15:29:14.228Z,4.03
2023-02-19T15:32:00.828Z,3.25
2023-02-19T15:34:55.460Z,5.00
2023-02-19T15:37:41.455Z,4.13
2023-02-19T15:40:30.432Z,2.10
2023-02-19T15:43:53.745Z,1.77
2023-02-19T15:46:41.006Z,1.13
2023-02-19T15:49:36.643Z,1.63
2023-02-19T15:52:48.232Z,1.13
2023-02-19T15:55:44.350Z,0.90
2023-02-19T15:58:37.617Z,1.20
2023-02-19T16:01:35.856Z,0.95
2023-02-19T16:04:20.977Z,0.77
2023-02-19T16:07:06.426Z,0.90
2023-02-19T16:10:20.326Z,2.13
2023-02-19T16:13:08.174Z,4.50
2023-02-19T16:16:01.236Z,4.38
2023-02-19T16:18:48.597Z,3.88
2023-02-19T16:21:34.091Z,3.95
2023-02-19T16:24:34.568Z,3.63
2023-02-19T16:27:36.690Z,5.93
2023-02-19T16:30:30.200Z,8.93
2023-02-19T16:33:34.658Z,8.95
2023-02-19T16:36:39.156Z,5.03
2023-02-19T16:39:24.442Z,2.28
2023-02-19T16:42:13.397Z,1.63
2023-02-19T16:44:58.662Z,2.30
2023-02-19T16:47:48.407Z,2.58
2023-02-19T16:50:33.689Z,2.28
2023-02-19T16:53:21.808Z,1.90
2023-02-19T16:56:15.327Z,1.70
2023-02-19T16:59:00.687Z,1.70
2023-02-19T17:01:46.080Z,1.48
2023-02-19T17:04:31.740Z,1.90
2023-02-19T17:07:18.024Z,1.45
2023-02-19T17:10:03.410Z,4.50
2023-02-19T17:12:49.550Z,9.32
2023-02-19T17:15:35.053Z,11.23
2023-02-19T17:18:20.396Z,13.90
2023-02-19T17:21:15.220Z,9.05
2023-02-19T17:24:00.779Z,5.32
2023-02-19T17:26:46.025Z,1.63
2023-02-19T17:29:33.881Z,1.70
2023-02-19T17:32:19.325Z,2.20
2023-02-19T17:35:05.223Z,3.00
2023-02-19T17:37:53.255Z,2.03
2023-02-19T17:40:39.175Z,2.88
2023-02-19T17:43:25.520Z,3.05
2023-02-19T17:46:16.130Z,15.05
2023-02-19T17:49:01.468Z,18.33
2023-02-19T17:51:46.787Z,15.65
2023-02-19T17:54:32.126Z,13.05
2023-02-19T17:57:17.521Z,18.05
2023-02-19T18:00:04.495Z,12.43
2023-02-19T18:02:49.885Z,10.40
2023-02-19T18:05:35.143Z,7.88
2023-02-19T18:08:20.400Z,6.88
2023-02-19T18:11:07.125Z,6.45
2023-02-19T18:13:52.501Z,4.45
2023-02-19T18:16:38.001Z,3.58
2023-02-19T18:19:23.335Z,3.25
2023-02-19T18:22:08.600Z,2.25
2023-02-19T18:24:54.071Z,2.40
2023-02-19T18:27:39.399Z,2.60
2023-02-19T18:30:24.989Z,3.70
2023-02-19T18:33:13.123Z,5.45
2023-02-19T18:35:58.389Z,5.13
2023-02-19T18:38:43.797Z,2.65
2023-02-19T18:41:29.200Z,2.70
2023-02-19T18:44:21.386Z,1.80
2023-02-19T18:47:08.204Z,1.48
2023-02-19T18:49:55.463Z,1.52
2023-02-19T18:52:40.538Z,2.42
2023-02-19T18:55:25.883Z,1.90
2023-02-19T18:58:11.078Z,2.05
2023-02-19T19:00:56.976Z,1.42
2023-02-19T19:03:42.434Z,1.30
2023-02-19T19:06:27.858Z,1.38
2023-02-19T19:09:13.295Z,1.00
2023-02-19T19:11:58.930Z,0.90
2023-02-19T19:14:44.887Z,1.30
2023-02-19T19:17:30.079Z,1.60
2023-02-19T19:20:18.791Z,1.63
2023-02-19T19:23:06.012Z,1.70
2023-02-19T19:25:51.029Z,1.30
2023-02-19T19:28:38.576Z,1.77
2023-02-19T19:31:25.678Z,1.70
2023-02-19T19:34:12.252Z,1.60
2023-02-19T19:36:57.344Z,2.08
2023-02-19T19:39:43.906Z,1.98
2023-02-19T19:42:29.289Z,2.50
2023-02-19T19:45:15.582Z,2.90
2023-02-19T19:48:01.317Z,3.08
2023-02-19T19:50:46.435Z,4.15
2023-02-19T19:53:32.264Z,4.13
2023-02-19T19:56:17.724Z,4.40
2023-02-19T19:59:02.848Z,4.13
2023-02-19T20:01:50.543Z,5.40
2023-02-19T20:04:35.691Z,6.20
2023-02-19T20:07:21.097Z,4.63
2023-02-19T20:10:07.968Z,3.72
2023-02-19T20:12:53.508Z,3.75
2023-02-19T20:15:38.759Z,3.20
2023-02-19T20:18:25.894Z,3.85
2023-02-19T20:21:11.532Z,4.07
2023-02-19T20:23:57.096Z,2.97
2023-02-19T20:26:43.077Z,3.30
2023-02-19T20:29:30.978Z,3.30
2023-02-19T20:32:18.548Z,3.10
2023-02-19T20:35:04.190Z,3.47
2023-02-19T20:37:49.619Z,3.83
2023-02-19T20:40:36.099Z,3.10
2023-02-19T20:43:21.733Z,2.90
2023-02-19T20:46:07.621Z,4.10
2023-02-19T20:48:52.927Z,3.85
2023-02-19T20:51:54.807Z,4.28
2023-02-19T20:54:42.342Z,4.17
2023-02-19T20:57:27.644Z,3.95
2023-02-19T21:00:15.507Z,3.53
2023-02-19T21:03:00.706Z,4.93
2023-02-19T21:05:45.968Z,5.22
2023-02-19T21:08:31.537Z,5.22
2023-02-19T21:11:16.881Z,3.67
2023-02-19T21:14:03.355Z,4.28
2023-02-19T21:16:48.838Z,4.28
2023-02-19T21:19:34.215Z,4.10
2023-02-19T21:22:19.590Z,4.88
2023-02-19T21:25:05.064Z,4.35
2023-02-19T21:27:50.450Z,4.95
2023-02-19T21:30:36.068Z,4.40
2023-02-19T21:33:21.401Z,4.90
2023-02-19T21:36:07.264Z,4.10
2023-02-19T21:38:52.517Z,3.97
2023-02-19T21:41:37.869Z,4.72
2023-02-19T21:44:23.363Z,4.38
2023-02-19T21:47:10.630Z,6.55
2023-02-19T21:49:55.841Z,5.30
2023-02-19T21:52:42.168Z,5.28
2023-02-19T21:55:28.861Z,4.00
2023-02-19T21:58:14.235Z,4.72
2023-02-19T22:00:59.647Z,5.22
2023-02-19T22:03:44.975Z,4.55
2023-02-19T22:06:31.264Z,5.47
2023-02-19T22:09:16.785Z,5.28
2023-02-19T22:12:02.093Z,7.85
2023-02-19T22:14:47.432Z,5.38
2023-02-19T22:17:32.947Z,5.57
2023-02-19T22:20:19.536Z,4.68
2023-02-19T22:23:06.028Z,5.20
2023-02-19T22:25:51.815Z,5.57
2023-02-19T22:28:38.539Z,5.60
2023-02-19T22:31:25.556Z,4.72
2023-02-19T22:34:11.000Z,4.88
2023-02-19T22:36:56.079Z,5.45
2023-02-19T22:39:41.504Z,5.13
2023-02-19T22:42:26.961Z,4.93
2023-02-19T22:45:13.130Z,5.55
2023-02-19T22:47:58.543Z,5.20
2023-02-19T22:50:43.807Z,5.47
2023-02-19T22:53:29.257Z,5.57
2023-02-19T22:56:16.702Z,6.35
2023-02-19T22:59:01.881Z,4.90
2023-02-19T23:01:48.926Z,5.53
2023-02-19T23:04:34.220Z,4.93
2023-02-19T23:07:19.746Z,5.32
2023-02-19T23:10:05.679Z,4.88
2023-02-19T23:12:51.134Z,5.18
2023-02-19T23:15:36.564Z,4.90
2023-02-19T23:18:21.971Z,4.68
2023-02-19T23:21:07.444Z,5.10
2023-02-19T23:23:52.553Z,5.22
2023-02-19T23:26:46.116Z,5.55
2023-02-19T23:29:31.457Z,5.55
2023-02-19T23:32:20.783Z,5.38
2023-02-19T23:35:06.381Z,5.25
2023-02-19T23:37:51.448Z,5.97
2023-02-19T23:40:36.892Z,5.05
2023-02-19T23:43:22.359Z,5.05
2023-02-19T23:46:07.760Z,5.78
2023-02-19T23:48:53.396Z,7.07
2023-02-19T23:51:38.798Z,5.30
2023-02-19T23:54:24.195Z,5.10
2023-02-19T23:57:09.456Z,6.10
2023-02-19T23:59:55.017Z,5.65
